Muskogee, OK (74401)

11:43 AM CST on February 13, 2016 (GMT -0600)
Grandview VII | | Change Station
CLOSE
Current Station
Personal Weather Station
Location: Muskogee, OK
Elevation: 577 ft
Nearby Weather Stations

Elev 577 ft 35.70 °N, 95.37 °W | Updated 28 seconds ago

Clear
Clear
48.2 °F
Feels Like 45 °F
N
6.8
Wind Variable Wind from ESE

Today
High -- | Low -- °F
--% Chance of Precip.
Yesterday
High -- | Low -- °F
Precip. -- in
Pressure 30.48 in
Visibility 10.0 miles
Clouds Clear
Windchill 45 °F
Dew Point 23 °F
Humidity 37%
Rainfall 0.00 in
Snow Depth Not available.
7:11 AM 6:00 PM
Waxing Crescent, 32% visible
METAR KMKO 131653Z AUTO 10010KT 10SM CLR 07/M06 A3048 RMK AO2 SLP321 T00671061
Pressure 30.48 in
Visibility 10.0 miles
Clouds Clear
Windchill 45 °F
Dew Point 23 °F
Humidity 37%
Rainfall 0.00 in
Snow Depth Not available.
7:11 AM 6:00 PM
Waxing Crescent, 32% visible
METAR KMKO 131653Z AUTO 10010KT 10SM CLR 07/M06 A3048 RMK AO2 SLP321 T00671061

10-Day Weather Forecast

Almanac

Astronomy

Feb. 13, 2016 Rise Set
Actual Time
Civil Twilight
Nautical Twilight
Astronomical Twilight
Moon
Length of Visible Light
Length of Day
Tomorrow will be .
, % of the Moon is Illuminated

Today's Extremes

State Highs State Lows

Community

WunderPhotos

Upload Photos

1,892,623 photos uploaded!

WunderBlog® & News

Nearby

Air Quality

  Air Quality AQ Index Pollutant
Not available.

Snow Depth

Station Depth Elevation

Earthquake Activity

City Distance Mag. Time & Date
Minimum magnitude displayed is 2.5.

Coastal Water Temperatures

Place Temperature

Stations

Nearby Weather Stations

Station Location Temp. Windchill Dew Point Humidity Wind Precip. Elev Updated Type
                   

Watches & Warnings

There are currently no watches in effect.